La Belle, Pennsylvania
Current Conditions -  °F | °C
As of 6:55 PM on Wednesday 22 Oct 2014 (Local Time) from KAFJ Reporting Station
Overcast Overcast  
Wind Chill: 45°   Ceiling: 2300
Heat Index: 48°   Visibility: 10mi
Dew Point: 39°   Wind: 7mph
Humidity: 71%   Direction: 350°N
Pressure: 30.19"   Gusts: NA
Location:  40.01°N, 79.98°W
Report Text: KAFJ 222255Z AUTO 35006KT 10SM OVC023 09/04 A3019 RMK AO1
Loading
Personal Weather Stations






























Interactive Weather Map
Tropical Storm Tracking
New forecast layout! Learn more

10-Day Weather Forecast

Advertisements
Track Severe Weather on mobile